sensor_id;sensor_type;location;lat;lon;timestamp;P1;durP1;ratioP1;P2;durP2;ratioP2
13267;SDS011;6702;47.068;15.458;2023-05-16T00:01:06;2.20;;;2.00;;
13267;SDS011;6702;47.068;15.458;2023-05-16T00:04:10;2.40;;;1.87;;
13267;SDS011;6702;47.068;15.458;2023-05-16T00:07:14;2.20;;;2.00;;
13267;SDS011;6702;47.068;15.458;2023-05-16T00:10:17;2.63;;;2.43;;
13267;SDS011;6702;47.068;15.458;2023-05-16T00:13:20;2.43;;;1.90;;
13267;SDS011;6702;47.068;15.458;2023-05-16T00:16:27;2.80;;;1.70;;
13267;SDS011;6702;47.068;15.458;2023-05-16T00:19:31;3.00;;;2.67;;
13267;SDS011;6702;47.068;15.458;2023-05-16T00:22:34;2.77;;;2.57;;
13267;SDS011;6702;47.068;15.458;2023-05-16T00:25:37;2.27;;;2.10;;
13267;SDS011;6702;47.068;15.458;2023-05-16T00:28:41;2.93;;;2.60;;
13267;SDS011;6702;47.068;15.458;2023-05-16T00:31:45;2.40;;;2.30;;
13267;SDS011;6702;47.068;15.458;2023-05-16T00:34:49;2.50;;;2.30;;
13267;SDS011;6702;47.068;15.458;2023-05-16T00:37:52;2.50;;;2.30;;
13267;SDS011;6702;47.068;15.458;2023-05-16T00:40:56;2.23;;;2.03;;
13267;SDS011;6702;47.068;15.458;2023-05-16T00:43:59;2.60;;;2.40;;
13267;SDS011;6702;47.068;15.458;2023-05-16T00:47:03;3.43;;;2.17;;
13267;SDS011;6702;47.068;15.458;2023-05-16T00:50:07;2.70;;;2.20;;
13267;SDS011;6702;47.068;15.458;2023-05-16T00:53:11;6.10;;;2.43;;
13267;SDS011;6702;47.068;15.458;2023-05-16T00:56:14;2.20;;;2.00;;
13267;SDS011;6702;47.068;15.458;2023-05-16T00:59:19;2.97;;;2.47;;
13267;SDS011;6702;47.068;15.458;2023-05-16T01:02:23;2.83;;;2.63;;
13267;SDS011;6702;47.068;15.458;2023-05-16T01:05:29;3.50;;;2.90;;
13267;SDS011;6702;47.068;15.458;2023-05-16T01:08:32;3.00;;;2.80;;
13267;SDS011;6702;47.068;15.458;2023-05-16T01:11:37;3.70;;;2.70;;
13267;SDS011;6702;47.068;15.458;2023-05-16T01:14:45;4.10;;;3.10;;
13267;SDS011;6702;47.068;15.458;2023-05-16T01:18:07;3.00;;;2.30;;
13267;SDS011;6702;47.068;15.458;2023-05-16T01:21:23;2.87;;;2.67;;
13267;SDS011;6702;47.068;15.458;2023-05-16T01:24:42;4.83;;;3.33;;
13267;SDS011;6702;47.068;15.458;2023-05-16T01:28:00;5.67;;;2.60;;
13267;SDS011;6702;47.068;15.458;2023-05-16T01:31:04;3.17;;;2.87;;
13267;SDS011;6702;47.068;15.458;2023-05-16T01:34:07;5.07;;;2.97;;
13267;SDS011;6702;47.068;15.458;2023-05-16T01:37:12;3.10;;;2.80;;
13267;SDS011;6702;47.068;15.458;2023-05-16T01:40:22;4.97;;;2.90;;
13267;SDS011;6702;47.068;15.458;2023-05-16T01:43:47;3.57;;;2.70;;
13267;SDS011;6702;47.068;15.458;2023-05-16T01:46:55;6.13;;;2.77;;
13267;SDS011;6702;47.068;15.458;2023-05-16T01:50:02;4.97;;;3.10;;
13267;SDS011;6702;47.068;15.458;2023-05-16T01:53:11;4.97;;;2.33;;
13267;SDS011;6702;47.068;15.458;2023-05-16T01:56:18;3.87;;;3.50;;
13267;SDS011;6702;47.068;15.458;2023-05-16T01:59:24;2.93;;;2.73;;
13267;SDS011;6702;47.068;15.458;2023-05-16T02:02:28;3.60;;;3.30;;
13267;SDS011;6702;47.068;15.458;2023-05-16T02:05:32;2.60;;;2.40;;
13267;SDS011;6702;47.068;15.458;2023-05-16T02:08:36;2.97;;;2.77;;
13267;SDS011;6702;47.068;15.458;2023-05-16T02:11:39;2.37;;;2.20;;
13267;SDS011;6702;47.068;15.458;2023-05-16T02:14:43;3.80;;;2.70;;
13267;SDS011;6702;47.068;15.458;2023-05-16T02:17:46;3.10;;;2.80;;
13267;SDS011;6702;47.068;15.458;2023-05-16T02:20:50;5.27;;;2.80;;
13267;SDS011;6702;47.068;15.458;2023-05-16T02:23:53;3.30;;;3.00;;
13267;SDS011;6702;47.068;15.458;2023-05-16T02:26:56;3.03;;;2.77;;
13267;SDS011;6702;47.068;15.458;2023-05-16T02:30:01;3.23;;;2.93;;
13267;SDS011;6702;47.068;15.458;2023-05-16T02:33:05;2.83;;;2.53;;
13267;SDS011;6702;47.068;15.458;2023-05-16T02:36:09;2.93;;;2.33;;
13267;SDS011;6702;47.068;15.458;2023-05-16T02:39:12;3.33;;;3.03;;
13267;SDS011;6702;47.068;15.458;2023-05-16T02:42:15;3.50;;;3.20;;
13267;SDS011;6702;47.068;15.458;2023-05-16T02:45:20;5.23;;;3.00;;
13267;SDS011;6702;47.068;15.458;2023-05-16T02:48:23;2.60;;;2.40;;
13267;SDS011;6702;47.068;15.458;2023-05-16T02:51:27;3.50;;;2.90;;
13267;SDS011;6702;47.068;15.458;2023-05-16T02:54:30;3.97;;;3.33;;
13267;SDS011;6702;47.068;15.458;2023-05-16T02:57:33;2.67;;;2.47;;
13267;SDS011;6702;47.068;15.458;2023-05-16T03:00:37;4.23;;;2.57;;
13267;SDS011;6702;47.068;15.458;2023-05-16T03:03:41;3.00;;;2.63;;
13267;SDS011;6702;47.068;15.458;2023-05-16T03:06:44;2.80;;;2.60;;
13267;SDS011;6702;47.068;15.458;2023-05-16T03:09:47;3.37;;;3.07;;
13267;SDS011;6702;47.068;15.458;2023-05-16T03:12:50;4.13;;;2.87;;
13267;SDS011;6702;47.068;15.458;2023-05-16T03:15:55;3.13;;;2.73;;
13267;SDS011;6702;47.068;15.458;2023-05-16T03:18:58;4.90;;;3.30;;
13267;SDS011;6702;47.068;15.458;2023-05-16T03:22:02;3.40;;;2.60;;
13267;SDS011;6702;47.068;15.458;2023-05-16T03:25:05;2.80;;;2.60;;
13267;SDS011;6702;47.068;15.458;2023-05-16T03:28:09;3.33;;;2.90;;
13267;SDS011;6702;47.068;15.458;2023-05-16T03:31:16;3.17;;;2.60;;
13267;SDS011;6702;47.068;15.458;2023-05-16T03:34:20;5.93;;;3.00;;
13267;SDS011;6702;47.068;15.458;2023-05-16T03:37:23;3.07;;;2.70;;
13267;SDS011;6702;47.068;15.458;2023-05-16T03:40:26;3.13;;;2.83;;
13267;SDS011;6702;47.068;15.458;2023-05-16T03:43:30;4.90;;;3.83;;
13267;SDS011;6702;47.068;15.458;2023-05-16T03:46:35;4.70;;;3.20;;
13267;SDS011;6702;47.068;15.458;2023-05-16T03:49:38;3.40;;;3.10;;
13267;SDS011;6702;47.068;15.458;2023-05-16T03:52:41;4.40;;;3.70;;
13267;SDS011;6702;47.068;15.458;2023-05-16T03:55:45;3.77;;;3.30;;
13267;SDS011;6702;47.068;15.458;2023-05-16T03:58:49;3.50;;;3.20;;
13267;SDS011;6702;47.068;15.458;2023-05-16T04:01:53;6.43;;;3.53;;
13267;SDS011;6702;47.068;15.458;2023-05-16T04:04:56;3.73;;;3.40;;
13267;SDS011;6702;47.068;15.458;2023-05-16T04:08:00;3.90;;;3.23;;
13267;SDS011;6702;47.068;15.458;2023-05-16T04:11:03;3.27;;;2.97;;
13267;SDS011;6702;47.068;15.458;2023-05-16T04:14:06;5.10;;;3.80;;
13267;SDS011;6702;47.068;15.458;2023-05-16T04:17:10;4.67;;;3.50;;
13267;SDS011;6702;47.068;15.458;2023-05-16T04:20:14;5.63;;;4.10;;
13267;SDS011;6702;47.068;15.458;2023-05-16T04:23:18;4.90;;;4.23;;
13267;SDS011;6702;47.068;15.458;2023-05-16T04:26:21;6.03;;;4.20;;
13267;SDS011;6702;47.068;15.458;2023-05-16T04:29:25;24.60;;;12.87;;
13267;SDS011;6702;47.068;15.458;2023-05-16T04:32:29;62.57;;;27.90;;
13267;SDS011;6702;47.068;15.458;2023-05-16T04:35:35;21.17;;;11.10;;
13267;SDS011;6702;47.068;15.458;2023-05-16T04:38:38;8.00;;;5.50;;
13267;SDS011;6702;47.068;15.458;2023-05-16T04:41:42;4.20;;;3.90;;
13267;SDS011;6702;47.068;15.458;2023-05-16T04:44:45;4.90;;;3.90;;
13267;SDS011;6702;47.068;15.458;2023-05-16T04:47:50;8.20;;;6.80;;
13267;SDS011;6702;47.068;15.458;2023-05-16T04:50:53;9.63;;;4.20;;
13267;SDS011;6702;47.068;15.458;2023-05-16T04:53:57;8.87;;;5.30;;
13267;SDS011;6702;47.068;15.458;2023-05-16T04:57:00;4.40;;;3.67;;
13267;SDS011;6702;47.068;15.458;2023-05-16T05:00:04;4.87;;;4.40;;
13267;SDS011;6702;47.068;15.458;2023-05-16T05:03:12;4.90;;;4.03;;
13267;SDS011;6702;47.068;15.458;2023-05-16T05:06:15;6.07;;;4.67;;
13267;SDS011;6702;47.068;15.458;2023-05-16T05:09:18;4.73;;;4.17;;
13267;SDS011;6702;47.068;15.458;2023-05-16T05:12:21;4.67;;;4.23;;
13267;SDS011;6702;47.068;15.458;2023-05-16T05:15:25;2.90;;;2.70;;
13267;SDS011;6702;47.068;15.458;2023-05-16T05:18:30;3.40;;;3.10;;
13267;SDS011;6702;47.068;15.458;2023-05-16T05:21:33;4.10;;;2.80;;
13267;SDS011;6702;47.068;15.458;2023-05-16T05:24:38;5.43;;;3.10;;
13267;SDS011;6702;47.068;15.458;2023-05-16T05:27:41;4.47;;;3.20;;
13267;SDS011;6702;47.068;15.458;2023-05-16T05:30:44;3.63;;;3.00;;
13267;SDS011;6702;47.068;15.458;2023-05-16T05:33:50;4.03;;;3.37;;
13267;SDS011;6702;47.068;15.458;2023-05-16T05:36:53;2.70;;;2.50;;
13267;SDS011;6702;47.068;15.458;2023-05-16T05:39:57;4.97;;;3.00;;
13267;SDS011;6702;47.068;15.458;2023-05-16T05:43:00;3.43;;;3.13;;
13267;SDS011;6702;47.068;15.458;2023-05-16T05:46:04;3.60;;;3.20;;
13267;SDS011;6702;47.068;15.458;2023-05-16T05:49:09;4.20;;;3.80;;
13267;SDS011;6702;47.068;15.458;2023-05-16T05:52:12;6.13;;;4.03;;
13267;SDS011;6702;47.068;15.458;2023-05-16T05:55:15;5.90;;;4.20;;
13267;SDS011;6702;47.068;15.458;2023-05-16T05:58:20;6.20;;;4.67;;
13267;SDS011;6702;47.068;15.458;2023-05-16T06:01:23;4.90;;;4.47;;
13267;SDS011;6702;47.068;15.458;2023-05-16T06:04:28;5.00;;;4.10;;
13267;SDS011;6702;47.068;15.458;2023-05-16T06:07:31;4.60;;;4.20;;
13267;SDS011;6702;47.068;15.458;2023-05-16T06:10:34;4.27;;;3.97;;
13267;SDS011;6702;47.068;15.458;2023-05-16T06:13:37;5.57;;;4.87;;
13267;SDS011;6702;47.068;15.458;2023-05-16T06:16:40;4.77;;;4.37;;
13267;SDS011;6702;47.068;15.458;2023-05-16T06:19:45;5.60;;;4.83;;
13267;SDS011;6702;47.068;15.458;2023-05-16T06:22:48;4.00;;;3.63;;
13267;SDS011;6702;47.068;15.458;2023-05-16T06:25:51;5.37;;;3.70;;
13267;SDS011;6702;47.068;15.458;2023-05-16T06:28:54;4.93;;;4.47;;
13267;SDS011;6702;47.068;15.458;2023-05-16T06:31:58;5.27;;;4.50;;
13267;SDS011;6702;47.068;15.458;2023-05-16T06:35:03;6.00;;;4.93;;
13267;SDS011;6702;47.068;15.458;2023-05-16T06:38:06;4.53;;;4.17;;
13267;SDS011;6702;47.068;15.458;2023-05-16T06:41:09;4.67;;;4.27;;
13267;SDS011;6702;47.068;15.458;2023-05-16T06:44:12;6.00;;;5.50;;
13267;SDS011;6702;47.068;15.458;2023-05-16T06:47:16;7.57;;;5.90;;
13267;SDS011;6702;47.068;15.458;2023-05-16T06:50:20;7.00;;;6.40;;
13267;SDS011;6702;47.068;15.458;2023-05-16T06:53:23;6.50;;;5.83;;
13267;SDS011;6702;47.068;15.458;2023-05-16T06:56:27;8.30;;;6.80;;
13267;SDS011;6702;47.068;15.458;2023-05-16T06:59:31;10.60;;;7.40;;
13267;SDS011;6702;47.068;15.458;2023-05-16T07:02:35;8.20;;;7.17;;
13267;SDS011;6702;47.068;15.458;2023-05-16T07:05:40;11.27;;;8.57;;
13267;SDS011;6702;47.068;15.458;2023-05-16T07:08:43;7.20;;;6.50;;
13267;SDS011;6702;47.068;15.458;2023-05-16T07:11:46;10.50;;;7.23;;
13267;SDS011;6702;47.068;15.458;2023-05-16T07:14:49;8.60;;;7.70;;
13267;SDS011;6702;47.068;15.458;2023-05-16T07:17:52;8.10;;;7.37;;
13267;SDS011;6702;47.068;15.458;2023-05-16T07:20:57;9.80;;;8.13;;
13267;SDS011;6702;47.068;15.458;2023-05-16T07:24:00;11.23;;;8.77;;
13267;SDS011;6702;47.068;15.458;2023-05-16T07:27:04;8.70;;;7.80;;
13267;SDS011;6702;47.068;15.458;2023-05-16T07:30:08;9.80;;;8.57;;
13267;SDS011;6702;47.068;15.458;2023-05-16T07:33:12;10.53;;;9.43;;
13267;SDS011;6702;47.068;15.458;2023-05-16T07:36:18;9.10;;;6.93;;
13267;SDS011;6702;47.068;15.458;2023-05-16T07:39:21;7.70;;;6.90;;
13267;SDS011;6702;47.068;15.458;2023-05-16T07:42:24;7.10;;;6.40;;
13267;SDS011;6702;47.068;15.458;2023-05-16T07:45:27;7.20;;;6.50;;
13267;SDS011;6702;47.068;15.458;2023-05-16T07:48:31;6.97;;;6.37;;
13267;SDS011;6702;47.068;15.458;2023-05-16T07:51:36;7.07;;;6.47;;
13267;SDS011;6702;47.068;15.458;2023-05-16T07:54:39;7.23;;;6.43;;
13267;SDS011;6702;47.068;15.458;2023-05-16T07:57:42;7.90;;;6.60;;
13267;SDS011;6702;47.068;15.458;2023-05-16T08:00:45;7.70;;;6.50;;
13267;SDS011;6702;47.068;15.458;2023-05-16T08:03:48;6.80;;;6.10;;
13267;SDS011;6702;47.068;15.458;2023-05-16T08:06:54;6.60;;;6.07;;
13267;SDS011;6702;47.068;15.458;2023-05-16T08:09:57;7.67;;;6.80;;
13267;SDS011;6702;47.068;15.458;2023-05-16T08:13:00;9.80;;;7.50;;
13267;SDS011;6702;47.068;15.458;2023-05-16T08:16:04;8.60;;;7.20;;
13267;SDS011;6702;47.068;15.458;2023-05-16T08:19:07;9.97;;;7.30;;
13267;SDS011;6702;47.068;15.458;2023-05-16T08:22:12;8.37;;;7.40;;
13267;SDS011;6702;47.068;15.458;2023-05-16T08:25:15;9.97;;;8.97;;
13267;SDS011;6702;47.068;15.458;2023-05-16T08:28:18;9.63;;;6.27;;
13267;SDS011;6702;47.068;15.458;2023-05-16T08:31:22;7.50;;;6.80;;
13267;SDS011;6702;47.068;15.458;2023-05-16T08:34:25;7.17;;;6.57;;
13267;SDS011;6702;47.068;15.458;2023-05-16T08:37:29;9.70;;;7.03;;
13267;SDS011;6702;47.068;15.458;2023-05-16T08:40:34;7.63;;;6.90;;
13267;SDS011;6702;47.068;15.458;2023-05-16T08:43:37;7.10;;;6.33;;
13267;SDS011;6702;47.068;15.458;2023-05-16T08:46:43;6.90;;;6.30;;
13267;SDS011;6702;47.068;15.458;2023-05-16T08:49:47;9.30;;;8.07;;
13267;SDS011;6702;47.068;15.458;2023-05-16T08:52:54;6.33;;;5.73;;
13267;SDS011;6702;47.068;15.458;2023-05-16T08:55:58;9.33;;;6.77;;
13267;SDS011;6702;47.068;15.458;2023-05-16T08:59:02;6.17;;;5.67;;
13267;SDS011;6702;47.068;15.458;2023-05-16T09:02:06;5.87;;;5.37;;
13267;SDS011;6702;47.068;15.458;2023-05-16T09:05:10;6.93;;;6.27;;
13267;SDS011;6702;47.068;15.458;2023-05-16T09:08:16;6.20;;;5.70;;
13267;SDS011;6702;47.068;15.458;2023-05-16T09:11:20;5.83;;;4.90;;
13267;SDS011;6702;47.068;15.458;2023-05-16T09:14:23;4.93;;;4.43;;
13267;SDS011;6702;47.068;15.458;2023-05-16T09:17:30;5.63;;;5.13;;
13267;SDS011;6702;47.068;15.458;2023-05-16T09:20:42;4.97;;;4.53;;
13267;SDS011;6702;47.068;15.458;2023-05-16T09:23:49;6.80;;;5.53;;
13267;SDS011;6702;47.068;15.458;2023-05-16T09:26:52;5.50;;;5.10;;
13267;SDS011;6702;47.068;15.458;2023-05-16T09:29:56;6.70;;;5.37;;
13267;SDS011;6702;47.068;15.458;2023-05-16T09:33:00;6.10;;;5.53;;
13267;SDS011;6702;47.068;15.458;2023-05-16T09:36:04;5.90;;;5.40;;
13267;SDS011;6702;47.068;15.458;2023-05-16T09:39:09;5.73;;;5.13;;
13267;SDS011;6702;47.068;15.458;2023-05-16T09:42:17;6.70;;;6.03;;
13267;SDS011;6702;47.068;15.458;2023-05-16T09:45:21;7.80;;;6.60;;
13267;SDS011;6702;47.068;15.458;2023-05-16T09:48:25;6.87;;;5.80;;
13267;SDS011;6702;47.068;15.458;2023-05-16T09:51:29;6.00;;;5.50;;
13267;SDS011;6702;47.068;15.458;2023-05-16T09:54:34;7.13;;;6.40;;
13267;SDS011;6702;47.068;15.458;2023-05-16T09:57:37;7.23;;;6.53;;
13267;SDS011;6702;47.068;15.458;2023-05-16T10:00:41;6.33;;;5.70;;
13267;SDS011;6702;47.068;15.458;2023-05-16T10:03:44;8.60;;;6.03;;
13267;SDS011;6702;47.068;15.458;2023-05-16T10:06:47;6.93;;;6.33;;
13267;SDS011;6702;47.068;15.458;2023-05-16T10:09:54;6.73;;;6.13;;
13267;SDS011;6702;47.068;15.458;2023-05-16T10:13:01;6.90;;;6.20;;
13267;SDS011;6702;47.068;15.458;2023-05-16T10:16:09;6.83;;;6.23;;
13267;SDS011;6702;47.068;15.458;2023-05-16T10:19:13;10.57;;;6.90;;
13267;SDS011;6702;47.068;15.458;2023-05-16T10:22:18;6.83;;;6.23;;
13267;SDS011;6702;47.068;15.458;2023-05-16T10:25:27;7.63;;;6.90;;
13267;SDS011;6702;47.068;15.458;2023-05-16T10:28:33;7.57;;;6.97;;
13267;SDS011;6702;47.068;15.458;2023-05-16T10:31:37;7.07;;;6.43;;
13267;SDS011;6702;47.068;15.458;2023-05-16T10:34:41;7.60;;;6.80;;
13267;SDS011;6702;47.068;15.458;2023-05-16T10:37:46;8.00;;;7.30;;
13267;SDS011;6702;47.068;15.458;2023-05-16T10:40:52;8.90;;;5.90;;
13267;SDS011;6702;47.068;15.458;2023-05-16T10:43:56;6.57;;;5.87;;
13267;SDS011;6702;47.068;15.458;2023-05-16T10:47:02;6.40;;;5.90;;
13267;SDS011;6702;47.068;15.458;2023-05-16T10:50:06;8.17;;;5.87;;
13267;SDS011;6702;47.068;15.458;2023-05-16T10:53:13;7.13;;;6.43;;
13267;SDS011;6702;47.068;15.458;2023-05-16T10:56:25;6.67;;;6.07;;
13267;SDS011;6702;47.068;15.458;2023-05-16T10:59:29;7.10;;;6.50;;
13267;SDS011;6702;47.068;15.458;2023-05-16T11:02:42;5.90;;;5.40;;
13267;SDS011;6702;47.068;15.458;2023-05-16T11:05:49;7.10;;;5.87;;
13267;SDS011;6702;47.068;15.458;2023-05-16T11:09:03;7.67;;;6.97;;
13267;SDS011;6702;47.068;15.458;2023-05-16T11:12:08;6.27;;;5.67;;
13267;SDS011;6702;47.068;15.458;2023-05-16T11:15:18;7.03;;;6.43;;
13267;SDS011;6702;47.068;15.458;2023-05-16T11:18:23;7.20;;;6.60;;
13267;SDS011;6702;47.068;15.458;2023-05-16T11:25:07;6.00;;;4.90;;
13267;SDS011;6702;47.068;15.458;2023-05-16T11:28:12;6.00;;;5.10;;
13267;SDS011;6702;47.068;15.458;2023-05-16T11:31:16;5.50;;;5.00;;
13267;SDS011;6702;47.068;15.458;2023-05-16T11:34:20;5.83;;;5.33;;
13267;SDS011;6702;47.068;15.458;2023-05-16T11:37:23;5.53;;;5.07;;
13267;SDS011;6702;47.068;15.458;2023-05-16T11:40:26;5.97;;;5.40;;
13267;SDS011;6702;47.068;15.458;2023-05-16T11:43:37;6.03;;;5.53;;
13267;SDS011;6702;47.068;15.458;2023-05-16T11:46:42;6.73;;;6.13;;
13267;SDS011;6702;47.068;15.458;2023-05-16T11:49:46;5.50;;;5.00;;
13267;SDS011;6702;47.068;15.458;2023-05-16T11:52:50;5.57;;;5.00;;
13267;SDS011;6702;47.068;15.458;2023-05-16T11:55:56;6.40;;;5.73;;
13267;SDS011;6702;47.068;15.458;2023-05-16T11:59:05;4.80;;;4.50;;
13267;SDS011;6702;47.068;15.458;2023-05-16T12:02:08;4.30;;;3.93;;
13267;SDS011;6702;47.068;15.458;2023-05-16T12:05:12;4.53;;;4.13;;
13267;SDS011;6702;47.068;15.458;2023-05-16T12:08:17;6.90;;;4.43;;
13267;SDS011;6702;47.068;15.458;2023-05-16T12:11:22;5.23;;;4.73;;
13267;SDS011;6702;47.068;15.458;2023-05-16T12:14:27;4.20;;;3.90;;
13267;SDS011;6702;47.068;15.458;2023-05-16T12:17:30;7.00;;;4.67;;
13267;SDS011;6702;47.068;15.458;2023-05-16T12:20:33;4.73;;;3.90;;
13267;SDS011;6702;47.068;15.458;2023-05-16T12:23:37;7.70;;;4.60;;
13267;SDS011;6702;47.068;15.458;2023-05-16T12:26:40;4.40;;;4.07;;
13267;SDS011;6702;47.068;15.458;2023-05-16T12:29:47;3.90;;;3.50;;
13267;SDS011;6702;47.068;15.458;2023-05-16T12:32:51;3.77;;;3.50;;
13267;SDS011;6702;47.068;15.458;2023-05-16T12:35:56;3.80;;;3.50;;
13267;SDS011;6702;47.068;15.458;2023-05-16T12:39:02;3.70;;;3.40;;
13267;SDS011;6702;47.068;15.458;2023-05-16T12:42:05;4.13;;;3.83;;
13267;SDS011;6702;47.068;15.458;2023-05-16T12:45:14;3.17;;;2.90;;
13267;SDS011;6702;47.068;15.458;2023-05-16T12:48:18;3.67;;;3.37;;
13267;SDS011;6702;47.068;15.458;2023-05-16T12:51:21;5.37;;;3.83;;
13267;SDS011;6702;47.068;15.458;2023-05-16T12:54:25;3.60;;;3.30;;
13267;SDS011;6702;47.068;15.458;2023-05-16T12:57:28;3.87;;;3.40;;
13267;SDS011;6702;47.068;15.458;2023-05-16T13:00:36;3.53;;;3.23;;
13267;SDS011;6702;47.068;15.458;2023-05-16T13:03:39;3.80;;;3.00;;
13267;SDS011;6702;47.068;15.458;2023-05-16T13:06:42;3.47;;;2.90;;
13267;SDS011;6702;47.068;15.458;2023-05-16T13:09:59;3.50;;;3.23;;
13267;SDS011;6702;47.068;15.458;2023-05-16T13:13:02;3.13;;;2.93;;
13267;SDS011;6702;47.068;15.458;2023-05-16T13:16:06;2.23;;;2.13;;
13267;SDS011;6702;47.068;15.458;2023-05-16T13:19:10;3.80;;;2.60;;
13267;SDS011;6702;47.068;15.458;2023-05-16T13:22:14;3.10;;;2.90;;
13267;SDS011;6702;47.068;15.458;2023-05-16T13:25:17;2.70;;;2.50;;
13267;SDS011;6702;47.068;15.458;2023-05-16T13:28:21;2.97;;;2.70;;
13267;SDS011;6702;47.068;15.458;2023-05-16T13:31:26;2.77;;;2.57;;
13267;SDS011;6702;47.068;15.458;2023-05-16T13:34:29;2.50;;;2.30;;
13267;SDS011;6702;47.068;15.458;2023-05-16T13:37:32;2.27;;;2.07;;
13267;SDS011;6702;47.068;15.458;2023-05-16T13:40:36;2.97;;;2.30;;
13267;SDS011;6702;47.068;15.458;2023-05-16T13:43:39;2.83;;;2.53;;
13267;SDS011;6702;47.068;15.458;2023-05-16T13:46:43;2.63;;;2.40;;
13267;SDS011;6702;47.068;15.458;2023-05-16T13:49:47;2.80;;;2.60;;
13267;SDS011;6702;47.068;15.458;2023-05-16T13:52:51;3.33;;;3.00;;
13267;SDS011;6702;47.068;15.458;2023-05-16T13:55:54;3.57;;;2.20;;
13267;SDS011;6702;47.068;15.458;2023-05-16T13:58:57;2.33;;;2.23;;
13267;SDS011;6702;47.068;15.458;2023-05-16T14:02:09;3.90;;;2.60;;
13267;SDS011;6702;47.068;15.458;2023-05-16T14:05:12;2.53;;;2.33;;
13267;SDS011;6702;47.068;15.458;2023-05-16T14:08:15;2.43;;;2.23;;
13267;SDS011;6702;47.068;15.458;2023-05-16T14:11:18;2.80;;;2.60;;
13267;SDS011;6702;47.068;15.458;2023-05-16T14:14:29;5.33;;;3.17;;
13267;SDS011;6702;47.068;15.458;2023-05-16T14:17:34;2.60;;;2.40;;
13267;SDS011;6702;47.068;15.458;2023-05-16T14:20:37;2.87;;;2.67;;
13267;SDS011;6702;47.068;15.458;2023-05-16T14:23:40;3.00;;;2.50;;
13267;SDS011;6702;47.068;15.458;2023-05-16T14:26:43;3.27;;;3.07;;
13267;SDS011;6702;47.068;15.458;2023-05-16T14:29:46;3.03;;;2.83;;
13267;SDS011;6702;47.068;15.458;2023-05-16T14:32:51;3.07;;;2.87;;
13267;SDS011;6702;47.068;15.458;2023-05-16T14:35:54;3.00;;;2.70;;
13267;SDS011;6702;47.068;15.458;2023-05-16T14:38:57;3.77;;;3.23;;
13267;SDS011;6702;47.068;15.458;2023-05-16T14:42:01;3.30;;;3.00;;
13267;SDS011;6702;47.068;15.458;2023-05-16T14:45:08;2.97;;;2.77;;
13267;SDS011;6702;47.068;15.458;2023-05-16T14:48:18;4.20;;;3.40;;
13267;SDS011;6702;47.068;15.458;2023-05-16T14:51:21;4.00;;;3.57;;
13267;SDS011;6702;47.068;15.458;2023-05-16T14:54:24;2.77;;;2.57;;
13267;SDS011;6702;47.068;15.458;2023-05-16T14:57:28;3.40;;;3.20;;
13267;SDS011;6702;47.068;15.458;2023-05-16T15:00:31;3.83;;;3.53;;
13267;SDS011;6702;47.068;15.458;2023-05-16T15:03:36;3.40;;;3.10;;
13267;SDS011;6702;47.068;15.458;2023-05-16T15:06:42;4.37;;;3.97;;
13267;SDS011;6702;47.068;15.458;2023-05-16T15:09:45;4.20;;;3.80;;
13267;SDS011;6702;47.068;15.458;2023-05-16T15:12:51;5.27;;;3.70;;
13267;SDS011;6702;47.068;15.458;2023-05-16T15:15:54;4.03;;;3.33;;
13267;SDS011;6702;47.068;15.458;2023-05-16T15:18:59;3.37;;;3.13;;
13267;SDS011;6702;47.068;15.458;2023-05-16T15:22:02;4.53;;;3.43;;
13267;SDS011;6702;47.068;15.458;2023-05-16T15:25:08;8.93;;;3.70;;
13267;SDS011;6702;47.068;15.458;2023-05-16T15:28:12;6.70;;;4.40;;
13267;SDS011;6702;47.068;15.458;2023-05-16T15:31:15;4.40;;;3.90;;
13267;SDS011;6702;47.068;15.458;2023-05-16T15:34:20;4.03;;;3.73;;
13267;SDS011;6702;47.068;15.458;2023-05-16T15:37:23;7.13;;;3.87;;
13267;SDS011;6702;47.068;15.458;2023-05-16T15:40:26;4.60;;;3.93;;
13267;SDS011;6702;47.068;15.458;2023-05-16T15:43:30;4.83;;;4.03;;
13267;SDS011;6702;47.068;15.458;2023-05-16T15:46:33;4.43;;;3.63;;
13267;SDS011;6702;47.068;15.458;2023-05-16T15:49:38;4.60;;;3.77;;
13267;SDS011;6702;47.068;15.458;2023-05-16T15:52:41;4.07;;;3.67;;
13267;SDS011;6702;47.068;15.458;2023-05-16T15:55:45;5.23;;;4.17;;
13267;SDS011;6702;47.068;15.458;2023-05-16T15:58:48;4.20;;;3.70;;
13267;SDS011;6702;47.068;15.458;2023-05-16T16:01:52;4.57;;;4.23;;
13267;SDS011;6702;47.068;15.458;2023-05-16T16:04:56;4.50;;;4.10;;
13267;SDS011;6702;47.068;15.458;2023-05-16T16:07:59;6.60;;;4.83;;
13267;SDS011;6702;47.068;15.458;2023-05-16T16:11:03;5.07;;;4.50;;
13267;SDS011;6702;47.068;15.458;2023-05-16T16:14:06;4.83;;;4.40;;
13267;SDS011;6702;47.068;15.458;2023-05-16T16:17:11;4.97;;;4.57;;
13267;SDS011;6702;47.068;15.458;2023-05-16T16:20:18;5.10;;;4.60;;
13267;SDS011;6702;47.068;15.458;2023-05-16T16:23:21;4.77;;;4.30;;
13267;SDS011;6702;47.068;15.458;2023-05-16T16:26:24;6.67;;;4.90;;
13267;SDS011;6702;47.068;15.458;2023-05-16T16:29:27;5.17;;;4.73;;
13267;SDS011;6702;47.068;15.458;2023-05-16T16:32:31;4.60;;;4.20;;
13267;SDS011;6702;47.068;15.458;2023-05-16T16:35:35;8.30;;;3.80;;
13267;SDS011;6702;47.068;15.458;2023-05-16T16:38:38;4.30;;;4.00;;
13267;SDS011;6702;47.068;15.458;2023-05-16T16:41:42;6.30;;;4.50;;
13267;SDS011;6702;47.068;15.458;2023-05-16T16:44:45;4.13;;;3.83;;
13267;SDS011;6702;47.068;15.458;2023-05-16T16:47:49;5.20;;;4.77;;
13267;SDS011;6702;47.068;15.458;2023-05-16T16:50:54;5.73;;;4.40;;
13267;SDS011;6702;47.068;15.458;2023-05-16T16:53:57;5.00;;;3.80;;
13267;SDS011;6702;47.068;15.458;2023-05-16T16:57:00;4.50;;;4.10;;
13267;SDS011;6702;47.068;15.458;2023-05-16T17:00:04;4.77;;;4.40;;
13267;SDS011;6702;47.068;15.458;2023-05-16T17:03:09;5.50;;;4.57;;
13267;SDS011;6702;47.068;15.458;2023-05-16T17:06:13;5.17;;;4.70;;
13267;SDS011;6702;47.068;15.458;2023-05-16T17:09:16;5.00;;;4.40;;
13267;SDS011;6702;47.068;15.458;2023-05-16T17:12:20;5.20;;;4.80;;
13267;SDS011;6702;47.068;15.458;2023-05-16T17:15:24;4.83;;;4.43;;
13267;SDS011;6702;47.068;15.458;2023-05-16T17:18:29;5.30;;;4.80;;
13267;SDS011;6702;47.068;15.458;2023-05-16T17:21:37;5.30;;;4.90;;
13267;SDS011;6702;47.068;15.458;2023-05-16T17:24:41;5.90;;;4.67;;
13267;SDS011;6702;47.068;15.458;2023-05-16T17:27:45;7.23;;;5.87;;
13267;SDS011;6702;47.068;15.458;2023-05-16T17:30:49;5.17;;;4.60;;
13267;SDS011;6702;47.068;15.458;2023-05-16T17:33:52;4.23;;;3.93;;
13267;SDS011;6702;47.068;15.458;2023-05-16T17:36:57;5.57;;;4.10;;
13267;SDS011;6702;47.068;15.458;2023-05-16T17:40:01;4.47;;;4.13;;
13267;SDS011;6702;47.068;15.458;2023-05-16T17:43:06;4.47;;;4.07;;
13267;SDS011;6702;47.068;15.458;2023-05-16T17:46:09;4.80;;;4.30;;
13267;SDS011;6702;47.068;15.458;2023-05-16T17:49:13;5.93;;;4.53;;
13267;SDS011;6702;47.068;15.458;2023-05-16T17:52:17;4.47;;;4.17;;
13267;SDS011;6702;47.068;15.458;2023-05-16T17:55:22;4.13;;;3.83;;
13267;SDS011;6702;47.068;15.458;2023-05-16T17:58:25;5.30;;;4.80;;
13267;SDS011;6702;47.068;15.458;2023-05-16T18:01:29;4.40;;;3.87;;
13267;SDS011;6702;47.068;15.458;2023-05-16T18:04:33;4.10;;;3.70;;
13267;SDS011;6702;47.068;15.458;2023-05-16T18:07:39;3.90;;;3.60;;
13267;SDS011;6702;47.068;15.458;2023-05-16T18:10:42;4.80;;;4.40;;
13267;SDS011;6702;47.068;15.458;2023-05-16T18:13:52;4.97;;;4.57;;
13267;SDS011;6702;47.068;15.458;2023-05-16T18:16:55;9.43;;;4.37;;
13267;SDS011;6702;47.068;15.458;2023-05-16T18:19:59;4.30;;;3.90;;
13267;SDS011;6702;47.068;15.458;2023-05-16T18:23:11;3.93;;;3.63;;
13267;SDS011;6702;47.068;15.458;2023-05-16T18:26:14;4.93;;;4.10;;
13267;SDS011;6702;47.068;15.458;2023-05-16T18:29:24;4.27;;;3.97;;
13267;SDS011;6702;47.068;15.458;2023-05-16T18:32:27;5.53;;;5.03;;
13267;SDS011;6702;47.068;15.458;2023-05-16T18:35:32;4.47;;;3.80;;